TUN weather

Tunis Carthage International Airport
Tunis, Tunis Governorate, Tunisia

Public forecast

Using degrees Celsius for public forecast. Weather courtesy of forecast.io.

Current aviation weather report (METAR) for Tunis Carthage International Airport

Retrieved 2019/10/18 02:30 UTC (27 minutes ago):

DTTA 180230Z 19002KT 9999 FEW026 18/18 Q1017

Aviation forecast (TAF) for Tunis Carthage International Airport

Retrieved 2019-10-18 00:54 UTC (2 hours ago):

TAF DTTA 172300Z 1800/1824 33005KT 9999 SCT026 PROB40 TEMPO 1804/1807 4000 BR FEW014